createdAt,value
2023-06-16T00:00:00.529Z,99224.34
2023-06-16T00:02:28.876Z,99217.34
2023-06-16T00:04:57.734Z,99214.34
2023-06-16T00:07:25.266Z,99206.38
2023-06-16T00:09:52.887Z,99202.34
2023-06-16T00:12:20.272Z,99201.56
2023-06-16T00:14:47.663Z,99210.91
2023-06-16T00:17:17.411Z,99215.53
2023-06-16T00:19:44.849Z,99215.91
2023-06-16T00:22:12.300Z,99216.25
2023-06-16T00:24:39.699Z,99217.03
2023-06-16T00:27:07.203Z,99212.00
2023-06-16T00:29:34.597Z,99208.00
2023-06-16T00:32:01.964Z,99211.16
2023-06-16T00:34:31.488Z,99216.50
2023-06-16T00:37:00.207Z,99206.72
2023-06-16T00:39:27.673Z,99207.31
2023-06-16T00:41:54.983Z,99216.66
2023-06-16T00:44:22.709Z,99212.06
2023-06-16T00:46:50.369Z,99208.47
2023-06-16T00:49:18.263Z,99211.22
2023-06-16T00:51:50.121Z,99209.44
2023-06-16T00:54:18.137Z,99212.00
2023-06-16T00:56:46.331Z,99209.19
2023-06-16T00:59:13.728Z,99215.16
2023-06-16T01:01:41.199Z,99208.81
2023-06-16T01:04:08.560Z,99219.75
2023-06-16T01:06:52.041Z,99218.31
2023-06-16T01:09:24.436Z,99211.13
2023-06-16T01:12:01.636Z,99216.47
2023-06-16T01:14:40.993Z,99217.84
2023-06-16T01:17:10.582Z,99215.03
2023-06-16T01:19:47.039Z,99219.81
2023-06-16T01:22:32.097Z,99212.19
2023-06-16T01:25:04.758Z,99212.19
2023-06-16T01:27:33.830Z,99218.50
2023-06-16T01:30:03.545Z,99209.72
2023-06-16T01:32:35.144Z,99208.16
2023-06-16T01:35:02.982Z,99208.72
2023-06-16T01:37:31.817Z,99214.69
2023-06-16T01:40:00.162Z,99207.69
2023-06-16T01:42:28.935Z,99212.47
2023-06-16T01:44:57.486Z,99209.44
2023-06-16T01:47:25.896Z,99209.00
2023-06-16T01:49:54.652Z,99211.97
2023-06-16T01:52:24.147Z,99210.75
2023-06-16T01:54:51.474Z,99213.69
2023-06-16T01:57:18.923Z,99209.88
2023-06-16T01:59:52.597Z,99218.03
2023-06-16T02:02:22.905Z,99215.78
2023-06-16T02:04:53.935Z,99211.19
2023-06-16T02:07:26.376Z,99208.59
2023-06-16T02:09:54.719Z,99209.72
2023-06-16T02:12:22.533Z,99210.09
2023-06-16T02:14:52.691Z,99207.63
2023-06-16T02:17:20.334Z,99201.78
2023-06-16T02:19:55.514Z,99207.91
2023-06-16T02:22:23.309Z,99201.50
2023-06-16T02:24:50.801Z,99203.69
2023-06-16T02:27:20.430Z,99200.44
2023-06-16T02:29:48.510Z,99210.16
2023-06-16T02:32:17.574Z,99209.50
2023-06-16T02:34:47.974Z,99202.09
2023-06-16T02:37:15.937Z,99205.03
2023-06-16T02:39:43.265Z,99205.94
2023-06-16T02:42:13.727Z,99197.94
2023-06-16T02:44:41.413Z,99196.13
2023-06-16T02:47:09.145Z,99195.09
2023-06-16T02:49:44.057Z,99203.47
2023-06-16T02:52:12.761Z,99195.25
2023-06-16T02:54:41.867Z,99198.97
2023-06-16T02:57:12.949Z,99200.13
2023-06-16T02:59:48.617Z,99202.88
2023-06-16T03:02:17.947Z,99199.81
2023-06-16T03:04:52.909Z,99191.56
2023-06-16T03:07:23.698Z,99200.94
2023-06-16T03:09:51.151Z,99202.31
2023-06-16T03:12:20.998Z,99208.31
2023-06-16T03:14:55.239Z,99203.66
2023-06-16T03:17:22.907Z,99199.84
2023-06-16T03:19:52.693Z,99200.75
2023-06-16T03:22:37.836Z,99200.44
2023-06-16T03:25:06.309Z,99203.16
2023-06-16T03:27:41.765Z,99200.25
2023-06-16T03:30:10.958Z,99200.59
2023-06-16T03:33:04.697Z,99197.66
2023-06-16T03:35:36.506Z,99200.72
2023-06-16T03:38:06.751Z,99200.03
2023-06-16T03:40:38.823Z,99197.00
2023-06-16T03:43:06.383Z,99193.72
2023-06-16T03:45:33.999Z,99188.06
2023-06-16T03:48:01.884Z,99192.56
2023-06-16T03:50:33.560Z,99192.91
2023-06-16T03:53:15.631Z,99191.78
2023-06-16T03:55:45.275Z,99195.81
2023-06-16T03:58:16.600Z,99198.09
2023-06-16T04:00:44.768Z,99194.91
2023-06-16T04:03:17.052Z,99199.56
2023-06-16T04:05:45.128Z,99194.66
2023-06-16T04:08:14.652Z,99196.81
2023-06-16T04:10:42.869Z,99194.56
2023-06-16T04:13:10.263Z,99187.25
2023-06-16T04:15:41.449Z,99182.66
2023-06-16T04:18:09.538Z,99190.25
2023-06-16T04:20:40.138Z,99191.59
2023-06-16T04:23:11.032Z,99184.47
2023-06-16T04:25:41.643Z,99194.03
2023-06-16T04:28:15.372Z,99183.53
2023-06-16T04:30:47.422Z,99182.72
2023-06-16T04:33:15.623Z,99184.22
2023-06-16T04:35:43.279Z,99182.88
2023-06-16T04:38:11.760Z,99176.84
2023-06-16T04:40:41.222Z,99181.97
2023-06-16T04:43:09.115Z,99183.97
2023-06-16T04:45:37.002Z,99187.00
2023-06-16T04:48:04.625Z,99188.78
2023-06-16T04:50:32.235Z,99186.09
2023-06-16T04:52:59.959Z,99183.84
2023-06-16T04:55:27.462Z,99188.44
2023-06-16T04:57:56.785Z,99191.69
2023-06-16T05:00:24.502Z,99196.81
2023-06-16T05:02:52.561Z,99187.50
2023-06-16T05:05:21.499Z,99194.59
2023-06-16T05:07:49.289Z,99188.13
2023-06-16T05:10:17.324Z,99183.72
2023-06-16T05:12:45.232Z,99185.84
2023-06-16T05:15:14.112Z,99193.75
2023-06-16T05:17:41.619Z,99192.78
2023-06-16T05:20:10.822Z,99191.53
2023-06-16T05:22:41.402Z,99187.91
2023-06-16T05:25:09.555Z,99182.47
2023-06-16T05:27:37.063Z,99185.88
2023-06-16T05:30:04.892Z,99182.00
2023-06-16T05:32:36.770Z,99194.84
2023-06-16T05:35:04.683Z,99188.88
2023-06-16T05:37:33.317Z,99193.03
2023-06-16T05:40:02.641Z,99191.47
2023-06-16T05:42:32.577Z,99183.63
2023-06-16T05:45:00.763Z,99186.00
2023-06-16T05:47:34.519Z,99197.03
2023-06-16T05:50:04.187Z,99180.50
2023-06-16T05:52:33.947Z,99176.28
2023-06-16T05:55:01.592Z,99183.13
2023-06-16T05:57:39.306Z,99182.84
2023-06-16T06:00:08.224Z,99182.06
2023-06-16T06:02:41.934Z,99185.94
2023-06-16T06:05:23.340Z,99182.75
2023-06-16T06:07:51.065Z,99188.78
2023-06-16T06:10:18.678Z,99182.00
2023-06-16T06:12:47.792Z,99188.09
2023-06-16T06:15:16.707Z,99182.56
2023-06-16T06:17:45.374Z,99183.63
2023-06-16T06:20:15.537Z,99188.88
2023-06-16T06:22:46.498Z,99179.94
2023-06-16T06:25:15.745Z,99185.16
2023-06-16T06:27:43.248Z,99177.25
2023-06-16T06:30:11.513Z,99184.00
2023-06-16T06:32:40.212Z,99178.41
2023-06-16T06:35:09.609Z,99182.81
2023-06-16T06:37:37.482Z,99181.94
2023-06-16T06:40:08.191Z,99179.34
2023-06-16T06:42:36.884Z,99186.28
2023-06-16T06:45:12.907Z,99179.44
2023-06-16T06:47:41.303Z,99179.88
2023-06-16T06:50:11.589Z,99179.69
2023-06-16T06:52:39.093Z,99181.59
2023-06-16T06:55:09.561Z,99180.97
2023-06-16T06:57:37.029Z,99172.44
2023-06-16T07:00:05.289Z,99177.00
2023-06-16T07:02:34.601Z,99176.09
2023-06-16T07:05:02.362Z,99173.09
2023-06-16T07:07:32.355Z,99175.22
2023-06-16T07:09:59.761Z,99172.00
2023-06-16T07:12:28.602Z,99176.44
2023-06-16T07:14:56.421Z,99169.56
2023-06-16T07:17:24.015Z,99166.09
2023-06-16T07:19:51.429Z,99168.31
2023-06-16T07:22:21.324Z,99167.97
2023-06-16T07:24:48.896Z,99175.72
2023-06-16T07:27:16.389Z,99170.78
2023-06-16T07:29:48.050Z,99172.22
2023-06-16T07:32:15.799Z,99162.31
2023-06-16T07:34:43.132Z,99164.00
2023-06-16T07:37:11.368Z,99171.25
2023-06-16T07:39:39.014Z,99166.34
2023-06-16T07:42:07.551Z,99168.13
2023-06-16T07:44:34.992Z,99164.84
2023-06-16T07:47:03.840Z,99163.28
2023-06-16T07:49:31.771Z,99156.00
2023-06-16T07:51:59.296Z,99156.00
2023-06-16T07:54:26.952Z,99156.56
2023-06-16T07:56:55.056Z,99161.84
2023-06-16T07:59:22.472Z,99156.78
2023-06-16T08:01:49.958Z,99152.47
2023-06-16T08:04:19.328Z,99159.16
2023-06-16T08:06:46.863Z,99164.16
2023-06-16T08:09:14.783Z,99153.72
2023-06-16T08:11:42.299Z,99155.19
2023-06-16T08:14:09.799Z,99159.41
2023-06-16T08:16:37.393Z,99154.72
2023-06-16T08:19:04.995Z,99155.59
2023-06-16T08:21:33.999Z,99147.81
2023-06-16T08:24:01.592Z,99148.13
2023-06-16T08:26:29.946Z,99141.47
2023-06-16T08:28:57.473Z,99151.47
2023-06-16T08:31:24.889Z,99151.47
2023-06-16T08:33:52.314Z,99150.63
2023-06-16T08:36:21.462Z,99154.56
2023-06-16T08:38:50.282Z,99147.69
2023-06-16T08:41:19.495Z,99149.28
2023-06-16T08:43:51.265Z,99142.13
2023-06-16T08:46:18.898Z,99149.50
2023-06-16T08:48:46.657Z,99152.19
2023-06-16T08:51:15.519Z,99152.03
2023-06-16T08:53:47.565Z,99144.53
2023-06-16T08:56:19.167Z,99137.97
2023-06-16T08:58:48.537Z,99139.63
2023-06-16T09:01:16.288Z,99138.94
2023-06-16T09:03:49.035Z,99140.94
2023-06-16T09:06:16.778Z,99140.72
2023-06-16T09:08:44.109Z,99133.28
2023-06-16T09:11:11.559Z,99137.19
2023-06-16T09:13:43.880Z,99125.03
2023-06-16T09:16:16.702Z,99132.38
2023-06-16T09:18:46.221Z,99127.91
2023-06-16T09:21:14.171Z,99122.25
2023-06-16T09:23:43.922Z,99127.00
2023-06-16T09:26:12.777Z,99125.75
2023-06-16T09:28:40.659Z,99127.63
2023-06-16T09:31:13.554Z,99123.53
2023-06-16T09:33:41.705Z,99122.38
2023-06-16T09:36:10.471Z,99125.28
2023-06-16T09:38:38.922Z,99123.50
2023-06-16T09:41:10.339Z,99125.63
2023-06-16T09:43:39.277Z,99118.63
2023-06-16T09:46:12.547Z,99119.94
2023-06-16T09:48:47.515Z,99119.09
2023-06-16T09:51:18.408Z,99119.38
2023-06-16T09:53:47.468Z,99110.75
2023-06-16T09:56:16.910Z,99115.22
2023-06-16T09:58:45.781Z,99124.84
2023-06-16T10:01:15.883Z,99118.00
2023-06-16T10:03:45.438Z,99119.78
2023-06-16T10:06:19.285Z,99113.94
2023-06-16T10:08:48.605Z,99112.88
2023-06-16T10:11:17.539Z,99113.38
2023-06-16T10:13:52.109Z,99118.34
2023-06-16T10:16:24.357Z,99111.28
2023-06-16T10:18:55.180Z,99110.09
2023-06-16T10:21:24.263Z,99112.22
2023-06-16T10:23:53.149Z,99108.75
2023-06-16T10:26:21.000Z,99099.03
2023-06-16T10:28:48.902Z,99094.97
2023-06-16T10:31:17.664Z,99103.38
2023-06-16T10:33:56.523Z,99094.47
2023-06-16T10:36:25.465Z,99094.47
2023-06-16T10:38:59.263Z,99083.81
2023-06-16T10:41:30.780Z,99081.78
2023-06-16T10:44:25.283Z,99082.25
2023-06-16T10:47:28.357Z,99075.53
2023-06-16T10:49:59.093Z,99061.78
2023-06-16T10:52:50.607Z,99073.19
2023-06-16T10:55:26.573Z,99068.13
2023-06-16T10:58:30.171Z,99072.19
2023-06-16T11:01:00.342Z,99067.78
2023-06-16T11:03:35.990Z,99064.84
2023-06-16T11:06:05.568Z,99060.34
2023-06-16T11:08:49.806Z,99057.22
2023-06-16T11:11:17.481Z,99057.13
2023-06-16T11:13:47.967Z,99057.47
2023-06-16T11:16:15.491Z,99057.63
2023-06-16T11:18:44.011Z,99053.03
2023-06-16T11:21:13.647Z,99059.44
2023-06-16T11:23:45.283Z,99060.16
2023-06-16T11:26:16.831Z,99062.28
2023-06-16T11:28:44.976Z,99060.47
2023-06-16T11:31:14.116Z,99059.94
2023-06-16T11:33:42.565Z,99056.13
2023-06-16T11:36:19.430Z,99054.66
2023-06-16T11:38:51.057Z,99060.50
2023-06-16T11:41:20.774Z,99055.69
2023-06-16T11:43:49.230Z,99054.28
2023-06-16T11:46:18.095Z,99057.22
2023-06-16T11:48:46.120Z,99047.31
2023-06-16T11:51:15.204Z,99048.75
2023-06-16T11:53:45.157Z,99054.03
2023-06-16T11:56:16.842Z,99046.91
2023-06-16T11:58:46.553Z,99037.03
2023-06-16T12:01:15.955Z,99037.47
2023-06-16T12:03:59.964Z,99039.50
2023-06-16T12:06:31.622Z,99035.44
2023-06-16T12:09:02.720Z,99031.53
2023-06-16T12:11:30.439Z,99016.75
2023-06-16T12:13:58.841Z,99028.00
2023-06-16T12:16:28.137Z,99013.03
2023-06-16T12:18:58.360Z,99020.41
2023-06-16T12:21:28.046Z,99023.78
2023-06-16T12:23:58.078Z,99031.88
2023-06-16T12:26:32.165Z,99030.03
2023-06-16T12:29:01.959Z,99024.56
2023-06-16T12:31:30.183Z,99026.72
2023-06-16T12:33:58.757Z,99017.69
2023-06-16T12:36:26.723Z,99013.06
2023-06-16T12:38:59.124Z,99005.94
2023-06-16T12:41:29.260Z,99002.47
2023-06-16T12:43:58.230Z,99002.75
2023-06-16T12:46:25.948Z,98996.75
2023-06-16T12:48:53.875Z,99001.94
2023-06-16T12:51:22.905Z,98996.53
2023-06-16T12:53:50.224Z,98997.47
2023-06-16T12:56:17.686Z,98989.72
2023-06-16T12:58:45.905Z,98991.00
2023-06-16T13:01:15.004Z,98987.25
2023-06-16T13:03:43.402Z,98980.75
2023-06-16T13:06:12.716Z,98988.41
2023-06-16T13:08:42.622Z,98992.31
2023-06-16T13:11:10.297Z,98987.13
2023-06-16T13:13:38.441Z,98981.19
2023-06-16T13:16:06.420Z,98982.34
2023-06-16T13:18:35.235Z,98982.91
2023-06-16T13:21:02.699Z,98981.75
2023-06-16T13:23:30.495Z,98988.47
2023-06-16T13:25:57.915Z,98987.22
2023-06-16T13:28:25.541Z,98984.22
2023-06-16T13:30:52.977Z,98993.88
2023-06-16T13:33:20.512Z,98988.03
2023-06-16T13:35:49.547Z,98994.69
2023-06-16T13:38:16.990Z,98988.78
2023-06-16T13:40:44.825Z,99001.84
2023-06-16T13:43:12.372Z,98991.06
2023-06-16T13:45:39.828Z,98993.47
2023-06-16T13:48:07.623Z,98990.31
2023-06-16T13:50:35.300Z,98985.28
2023-06-16T13:53:04.257Z,98982.38
2023-06-16T13:55:31.657Z,98979.69
2023-06-16T13:57:59.275Z,98978.63
2023-06-16T14:00:26.564Z,98980.22
2023-06-16T14:02:55.194Z,98986.59
2023-06-16T14:05:22.928Z,98980.03
2023-06-16T14:07:50.474Z,98976.50
2023-06-16T14:10:19.952Z,98983.44
2023-06-16T14:12:47.531Z,98975.16
2023-06-16T14:15:15.237Z,98985.56
2023-06-16T14:17:43.115Z,98988.59
2023-06-16T14:20:12.189Z,98976.78
2023-06-16T14:22:40.066Z,98981.19
2023-06-16T14:25:09.463Z,98977.34
2023-06-16T14:27:38.356Z,98977.81
2023-06-16T14:30:10.582Z,98972.94
2023-06-16T14:32:39.234Z,98968.56
2023-06-16T14:35:07.447Z,98966.41
2023-06-16T14:37:36.757Z,98973.06
2023-06-16T14:40:05.714Z,98965.84
2023-06-16T14:42:38.344Z,98964.66
2023-06-16T14:45:09.652Z,98967.75
2023-06-16T14:47:37.952Z,98961.94
2023-06-16T14:50:06.517Z,98962.09
2023-06-16T14:52:34.431Z,98962.06
2023-06-16T14:55:01.836Z,98960.78
2023-06-16T14:57:32.936Z,98960.03
2023-06-16T15:00:01.793Z,98958.91
2023-06-16T15:02:32.410Z,98953.59
2023-06-16T15:05:00.034Z,98953.97
2023-06-16T15:07:27.383Z,98951.41
2023-06-16T15:09:54.855Z,98950.34
2023-06-16T15:12:22.341Z,98951.09
2023-06-16T15:14:49.722Z,98954.56
2023-06-16T15:17:18.717Z,98954.72
2023-06-16T15:19:46.331Z,98950.06
2023-06-16T15:22:13.667Z,98954.91
2023-06-16T15:24:41.098Z,98948.94
2023-06-16T15:27:08.645Z,98943.47
2023-06-16T15:29:36.413Z,98943.94
2023-06-16T15:32:03.890Z,98940.16
2023-06-16T15:34:32.788Z,98940.09
2023-06-16T15:37:03.952Z,98942.72
2023-06-16T15:39:31.177Z,98948.66
2023-06-16T15:41:58.425Z,98942.03
2023-06-16T15:44:25.927Z,98937.19
2023-06-16T15:46:53.414Z,98944.50
2023-06-16T15:49:21.931Z,98940.22
2023-06-16T15:51:52.004Z,98946.72
2023-06-16T15:54:19.312Z,98939.78
2023-06-16T15:56:46.613Z,98939.38
2023-06-16T15:59:14.137Z,98942.09
2023-06-16T16:01:43.476Z,98939.63
2023-06-16T16:04:11.291Z,98935.69
2023-06-16T16:06:38.765Z,98943.59
2023-06-16T16:09:10.247Z,98940.09
2023-06-16T16:11:41.060Z,98948.38
2023-06-16T16:14:09.073Z,98950.91
2023-06-16T16:16:37.483Z,98945.16
2023-06-16T16:19:04.929Z,98941.44
2023-06-16T16:21:32.998Z,98945.59
2023-06-16T16:24:00.661Z,98947.59
2023-06-16T16:26:29.407Z,98942.75
2023-06-16T16:28:56.650Z,98945.78
2023-06-16T16:31:24.187Z,98947.66
2023-06-16T16:33:51.959Z,98952.47
2023-06-16T16:36:19.919Z,98948.84
2023-06-16T16:38:47.451Z,98949.94
2023-06-16T16:41:14.905Z,98948.94
2023-06-16T16:43:43.911Z,98956.06
2023-06-16T16:46:11.455Z,98946.66
2023-06-16T16:48:38.749Z,98951.72
2023-06-16T16:51:06.708Z,98947.09
2023-06-16T16:53:34.259Z,98949.53
2023-06-16T16:56:01.622Z,98960.06
2023-06-16T16:58:29.215Z,98953.00
2023-06-16T17:00:58.162Z,98959.31
2023-06-16T17:03:26.098Z,98951.75
2023-06-16T17:05:53.613Z,98953.59
2023-06-16T17:08:20.873Z,98946.56
2023-06-16T17:10:48.451Z,98943.69
2023-06-16T17:13:15.855Z,98955.81
2023-06-16T17:15:43.333Z,98954.25
2023-06-16T17:18:12.043Z,98952.44
2023-06-16T17:20:39.532Z,98946.97
2023-06-16T17:23:07.575Z,98953.78
2023-06-16T17:25:35.892Z,98950.13
2023-06-16T17:28:03.586Z,98947.53
2023-06-16T17:30:32.495Z,98958.59
2023-06-16T17:33:00.884Z,98951.00
2023-06-16T17:35:31.589Z,98947.56
2023-06-16T17:38:00.327Z,98955.47
2023-06-16T17:40:30.531Z,98953.38
2023-06-16T17:42:58.060Z,98950.25
2023-06-16T17:45:25.426Z,98956.59
2023-06-16T17:47:52.824Z,98955.53
2023-06-16T17:50:20.789Z,98951.63
2023-06-16T17:52:49.689Z,98949.00
2023-06-16T17:55:17.326Z,98960.03
2023-06-16T17:57:44.751Z,98960.56
2023-06-16T18:00:17.108Z,98963.50
2023-06-16T18:02:45.026Z,98967.66
2023-06-16T18:05:12.939Z,98965.31
2023-06-16T18:07:41.024Z,98970.56
2023-06-16T18:10:11.602Z,98971.06
2023-06-16T18:12:39.245Z,98976.56
2023-06-16T18:15:08.150Z,98971.31
2023-06-16T18:17:36.106Z,98968.13
2023-06-16T18:20:04.884Z,98971.81
2023-06-16T18:22:37.523Z,98974.44
2023-06-16T18:25:06.031Z,98971.81
2023-06-16T18:27:36.464Z,98980.16
2023-06-16T18:30:06.279Z,98973.88
2023-06-16T18:32:37.472Z,98978.56
2023-06-16T18:35:06.571Z,98976.22
2023-06-16T18:37:41.874Z,98973.81
2023-06-16T18:40:10.691Z,98979.28
2023-06-16T18:42:39.622Z,98979.78
2023-06-16T18:45:07.990Z,98983.16
2023-06-16T18:47:37.162Z,98976.81
2023-06-16T18:50:05.616Z,98988.81
2023-06-16T18:52:33.401Z,98986.47
2023-06-16T18:55:01.200Z,98992.44
2023-06-16T18:57:34.061Z,98997.09
2023-06-16T19:00:05.008Z,98994.97
2023-06-16T19:02:35.950Z,98994.41
2023-06-16T19:05:05.780Z,99001.69
2023-06-16T19:07:33.894Z,99000.28
2023-06-16T19:10:01.436Z,99001.50
2023-06-16T19:12:29.880Z,99007.97
2023-06-16T19:14:57.295Z,98998.78
2023-06-16T19:17:26.445Z,98998.25
2023-06-16T19:19:54.167Z,99003.19
2023-06-16T19:22:21.777Z,99006.03
2023-06-16T19:24:49.436Z,99009.13
2023-06-16T19:27:16.832Z,99003.31
2023-06-16T19:29:44.288Z,99012.66
2023-06-16T19:32:11.777Z,99006.13
2023-06-16T19:34:41.929Z,99007.34
2023-06-16T19:37:09.378Z,99011.00
2023-06-16T19:39:36.975Z,99016.75
2023-06-16T19:42:05.177Z,99021.44
2023-06-16T19:44:32.622Z,99013.88
2023-06-16T19:47:00.122Z,99018.06
2023-06-16T19:49:27.619Z,99021.44
2023-06-16T19:51:56.587Z,99009.44
2023-06-16T19:54:23.994Z,99019.59
2023-06-16T19:56:53.342Z,99017.69
2023-06-16T19:59:20.869Z,99021.03
2023-06-16T20:01:48.290Z,99018.94
2023-06-16T20:04:16.034Z,99024.38
2023-06-16T20:06:43.477Z,99019.16
2023-06-16T20:09:12.361Z,99022.84
2023-06-16T20:11:39.861Z,99017.28
2023-06-16T20:14:07.116Z,99020.16
2023-06-16T20:16:34.665Z,99014.63
2023-06-16T20:19:04.387Z,99018.03
2023-06-16T20:21:31.761Z,99019.06
2023-06-16T20:23:59.074Z,99018.53
2023-06-16T20:26:27.975Z,99024.19
2023-06-16T20:28:55.704Z,99026.25
2023-06-16T20:31:23.065Z,99021.53
2023-06-16T20:33:50.611Z,99025.66
2023-06-16T20:36:18.112Z,99025.34
2023-06-16T20:38:45.390Z,99023.25
2023-06-16T20:41:13.671Z,99018.50
2023-06-16T20:43:43.605Z,99022.63
2023-06-16T20:46:10.994Z,99032.75
2023-06-16T20:48:38.304Z,99028.81
2023-06-16T20:51:05.677Z,99022.50
2023-06-16T20:53:35.585Z,99022.22
2023-06-16T20:56:03.404Z,99033.09
2023-06-16T20:58:36.777Z,99027.59
2023-06-16T21:01:06.311Z,99025.22
2023-06-16T21:03:33.948Z,99023.34
2023-06-16T21:06:02.102Z,99029.84
2023-06-16T21:08:36.106Z,99031.09
2023-06-16T21:11:03.426Z,99027.16
2023-06-16T21:13:31.839Z,99028.66
2023-06-16T21:16:02.502Z,99028.59
2023-06-16T21:18:32.729Z,99025.44
2023-06-16T21:21:00.265Z,99021.72
2023-06-16T21:23:28.083Z,99026.06
2023-06-16T21:25:55.689Z,99035.38
2023-06-16T21:28:23.118Z,99033.50
2023-06-16T21:30:50.527Z,99029.78
2023-06-16T21:33:17.981Z,99037.53
2023-06-16T21:35:46.848Z,99036.88
2023-06-16T21:38:21.814Z,99040.69
2023-06-16T21:40:49.173Z,99039.16
2023-06-16T21:43:16.711Z,99032.22
2023-06-16T21:45:44.056Z,99033.09
2023-06-16T21:48:11.612Z,99041.03
2023-06-16T21:50:39.067Z,99033.31
2023-06-16T21:53:07.828Z,99041.59
2023-06-16T21:55:35.631Z,99030.09
2023-06-16T21:58:03.007Z,99027.94
2023-06-16T22:00:30.510Z,99028.91
2023-06-16T22:02:58.072Z,99035.25
2023-06-16T22:05:25.449Z,99029.84
2023-06-16T22:07:54.719Z,99032.34
2023-06-16T22:10:23.568Z,99026.50
2023-06-16T22:12:51.348Z,99031.34
2023-06-16T22:15:18.758Z,99026.63
2023-06-16T22:17:46.320Z,99029.13
2023-06-16T22:20:14.545Z,99023.84
2023-06-16T22:22:42.048Z,99012.31
2023-06-16T22:25:10.599Z,99018.66
2023-06-16T22:27:39.576Z,99014.38
2023-06-16T22:30:09.342Z,99014.47
2023-06-16T22:32:37.509Z,99018.53
2023-06-16T22:35:06.101Z,99019.56
2023-06-16T22:37:33.815Z,99016.63
2023-06-16T22:40:01.510Z,99017.88
2023-06-16T22:42:29.126Z,99018.78
2023-06-16T22:44:57.922Z,99015.41
2023-06-16T22:47:26.934Z,99007.94
2023-06-16T22:49:54.903Z,99014.38
2023-06-16T22:52:22.252Z,99010.16
2023-06-16T22:54:51.408Z,99006.28
2023-06-16T22:57:19.589Z,99012.03
2023-06-16T22:59:47.051Z,99006.72
2023-06-16T23:02:16.046Z,99006.59
2023-06-16T23:04:43.327Z,99003.44
2023-06-16T23:07:10.850Z,99003.06
2023-06-16T23:09:38.222Z,99000.72
2023-06-16T23:12:06.638Z,99004.41
2023-06-16T23:14:34.245Z,99011.91
2023-06-16T23:17:01.850Z,99006.59
2023-06-16T23:19:31.531Z,99011.66
2023-06-16T23:21:59.577Z,99012.69
2023-06-16T23:24:27.226Z,99008.72
2023-06-16T23:26:56.074Z,99015.13
2023-06-16T23:29:23.467Z,99021.75
2023-06-16T23:31:50.937Z,99017.22
2023-06-16T23:34:18.384Z,99017.22
2023-06-16T23:36:47.554Z,99012.81
2023-06-16T23:39:15.260Z,99010.81
2023-06-16T23:41:42.562Z,99015.22
2023-06-16T23:44:10.088Z,99018.47
2023-06-16T23:46:37.419Z,99009.75
2023-06-16T23:49:04.726Z,99008.97
2023-06-16T23:51:32.069Z,99014.13
2023-06-16T23:54:01.159Z,99013.34
2023-06-16T23:56:29.693Z,99013.34
2023-06-16T23:58:57.276Z,99018.75
